Courageous — WBC5659 — position and weather

sailwx.info

Track history (hours):
 
Tides and Currents Weather Stations Pressure Air Temp Water Temp Dewpoint Dewpoint Depression Visibility Wind Speed Wind Dir Waves Ship Positions

Courageous

Last reported at 2015-Jun-24 19:26 UTC. Time now 2015-Jul-06 02:48 UTC.
Position N 48°55' W 126°22'.
Warning: this ship's position is 11 days out of date.

Length 54 m; draft 6 m.

Type: Ship (hazmat cat B). MMSI: 368499000.

Date/timePositionNaut miles runAvg speedWind from/ knotsBaromVisibWave heightAir tempDewpointWater temp
2015-Jun-24 19:26N 48°55' W 126°22'910.4
2015-Jun-24 18:33N 48°51' W 126°10'1010.6
2015-Jun-24 17:34N 48°46' W 125°56'1010.4
2015-Jun-24 16:34N 48°40' W 125°43'1110.5
2015-Jun-24 15:33N 48°36' W 125°28'14 9.9
2015-Jun-24 14:09N 48°31' W 125°08'6 9.9
2015-Jun-24 13:34N 48°31' W 124°60'1110.6
2015-Jun-24 12:33N 48°31' W 124°44'1211.4
2015-Jun-24 11:33N 48°26' W 124°28'1211.7
2015-Jun-24 10:33N 48°22' W 124°11'1211.8
2015-Jun-24 09:33N 48°18' W 123°54'1111.4
2015-Jun-24 08:34N 48°15' W 123°38'1110.8
2015-Jun-24 07:33N 48°14' W 123°22'011.9
2015-Jun-24 07:32N 48°14' W 123°21'1210.5
2015-Jun-24 06:21N 48°13' W 123°03'16 8.4
2015-Jun-24 04:24N 48°07' W 122°40'7 8.5
2015-Jun-24 03:32N 48°00' W 122°36'0 0.0
2015-Jun-24 03:32N 48°00' W 122°36'8 8.5
2015-Jun-24 02:33N 47°54' W 122°28'10 9.9
2015-Jun-24 01:33N 47°44' W 122°26'5 4.6
2015-Jun-24 00:33N 47°40' W 122°24'0 0.1
2015-Jun-23 23:33N 47°40' W 122°24'0 0.0
2015-Jun-23 23:30N 47°40' W 122°24'0 0.3
2015-Jun-23 22:33N 47°40' W 122°23'0 0.0
2015-Jun-23 22:30N 47°40' W 122°23'0 0.0
2015-Jun-23 21:33N 47°40' W 122°23'0 0.0
2015-Jun-23 20:33N 47°40' W 122°23'0 0.1
2015-Jun-23 20:29N 47°40' W 122°23'0 0.0
2015-Jun-23 19:33N 47°40' W 122°23'0 0.0
2015-Jun-23 19:30N 47°40' W 122°23'0 0.0
2015-Jun-23 19:06N 47°40' W 122°23'0 0.0
2015-Jun-23 19:05N 47°40' W 122°23'  
2015-Jun-16 23:13N 47°40' W 122°24'0 0.0
2015-Jun-16 23:10N 47°40' W 122°24'0 0.0
2015-Jun-16 22:33N 47°40' W 122°24'0 0.0
2015-Jun-16 22:29N 47°40' W 122°24'0 0.0
2015-Jun-16 20:37N 47°40' W 122°24'0 0.0
2015-Jun-16 20:19N 47°40' W 122°24'0 0.0
2015-Jun-16 20:17N 47°40' W 122°24'0 0.3
2015-Jun-16 19:33N 47°40' W 122°24'0 1.4
2015-Jun-16 19:32N 47°40' W 122°24'8 8.3
2015-Jun-16 18:33N 47°48' W 122°27'9 9.0
2015-Jun-16 17:33N 47°56' W 122°32'26 6.7
2015-Jun-16 13:41N 48°20' W 122°46'211.2
2015-Jun-16 13:31N 48°22' W 122°46'1111.3
2015-Jun-16 12:33N 48°32' W 122°41'10 9.8
2015-Jun-16 11:33N 48°41' W 122°33'  
Track history (hours):
 
Tides and Currents Weather Stations Pressure Air Temp Water Temp Dewpoint Dewpoint Depression Visibility Wind Speed Wind Dir Waves Ship Positions

Courageous

Last reported at 2015-Jun-24 19:26 UTC. Time now 2015-Jul-06 02:48 UTC.
Position N 48°55' W 126°22'.
Warning: this ship's position is 11 days out of date.

Length 54 m; draft 6 m.

Type: Ship (hazmat cat B). MMSI: 368499000.

Date/timePositionNaut miles runAvg speedWind from/ knotsBaromVisibWave heightAir tempDewpointWater temp
2015-Jun-24 19:26N 48°55' W 126°22'910.4
2015-Jun-24 18:33N 48°51' W 126°10'1010.6
2015-Jun-24 17:34N 48°46' W 125°56'1010.4
2015-Jun-24 16:34N 48°40' W 125°43'1110.5
2015-Jun-24 15:33N 48°36' W 125°28'14 9.9
2015-Jun-24 14:09N 48°31' W 125°08'6 9.9
2015-Jun-24 13:34N 48°31' W 124°60'1110.6
2015-Jun-24 12:33N 48°31' W 124°44'1211.4
2015-Jun-24 11:33N 48°26' W 124°28'1211.7
2015-Jun-24 10:33N 48°22' W 124°11'1211.8
2015-Jun-24 09:33N 48°18' W 123°54'1111.4
2015-Jun-24 08:34N 48°15' W 123°38'1110.8
2015-Jun-24 07:33N 48°14' W 123°22'011.9
2015-Jun-24 07:32N 48°14' W 123°21'1210.5
2015-Jun-24 06:21N 48°13' W 123°03'16 8.4
2015-Jun-24 04:24N 48°07' W 122°40'7 8.5
2015-Jun-24 03:32N 48°00' W 122°36'0 0.0
2015-Jun-24 03:32N 48°00' W 122°36'8 8.5
2015-Jun-24 02:33N 47°54' W 122°28'10 9.9
2015-Jun-24 01:33N 47°44' W 122°26'5 4.6
2015-Jun-24 00:33N 47°40' W 122°24'0 0.1
2015-Jun-23 23:33N 47°40' W 122°24'0 0.0
2015-Jun-23 23:30N 47°40' W 122°24'0 0.3
2015-Jun-23 22:33N 47°40' W 122°23'0 0.0
2015-Jun-23 22:30N 47°40' W 122°23'0 0.0
2015-Jun-23 21:33N 47°40' W 122°23'0 0.0
2015-Jun-23 20:33N 47°40' W 122°23'0 0.1
2015-Jun-23 20:29N 47°40' W 122°23'0 0.0
2015-Jun-23 19:33N 47°40' W 122°23'0 0.0
2015-Jun-23 19:30N 47°40' W 122°23'0 0.0
2015-Jun-23 19:06N 47°40' W 122°23'0 0.0
2015-Jun-23 19:05N 47°40' W 122°23'  
2015-Jun-16 23:13N 47°40' W 122°24'0 0.0
2015-Jun-16 23:10N 47°40' W 122°24'0 0.0
2015-Jun-16 22:33N 47°40' W 122°24'0 0.0
2015-Jun-16 22:29N 47°40' W 122°24'0 0.0
2015-Jun-16 20:37N 47°40' W 122°24'0 0.0
2015-Jun-16 20:19N 47°40' W 122°24'0 0.0
2015-Jun-16 20:17N 47°40' W 122°24'0 0.3
2015-Jun-16 19:33N 47°40' W 122°24'0 1.4
2015-Jun-16 19:32N 47°40' W 122°24'8 8.3
2015-Jun-16 18:33N 47°48' W 122°27'9 9.0
2015-Jun-16 17:33N 47°56' W 122°32'26 6.7
2015-Jun-16 13:41N 48°20' W 122°46'211.2
2015-Jun-16 13:31N 48°22' W 122°46'1111.3
2015-Jun-16 12:33N 48°32' W 122°41'10 9.8
2015-Jun-16 11:33N 48°41' W 122°33'  

Dump ship's entire track history